sensor_id;sensor_type;location;lat;lon;timestamp;P1;durP1;ratioP1;P2;durP2;ratioP2
25359;SDS011;13311;51.386;0.016;2023-08-21T00:03:24;6.10;;;2.50;;
25359;SDS011;13311;51.386;0.016;2023-08-21T00:08:25;5.70;;;3.15;;
25359;SDS011;13311;51.386;0.016;2023-08-21T00:13:25;10.05;;;2.58;;
25359;SDS011;13311;51.386;0.016;2023-08-21T00:18:26;6.35;;;2.80;;
25359;SDS011;13311;51.386;0.016;2023-08-21T00:23:27;7.88;;;2.97;;
25359;SDS011;13311;51.386;0.016;2023-08-21T00:28:27;8.02;;;3.03;;
25359;SDS011;13311;51.386;0.016;2023-08-21T00:33:33;7.22;;;2.55;;
25359;SDS011;13311;51.386;0.016;2023-08-21T00:38:34;9.25;;;2.83;;
25359;SDS011;13311;51.386;0.016;2023-08-21T00:43:35;7.10;;;2.60;;
25359;SDS011;13311;51.386;0.016;2023-08-21T00:48:35;3.92;;;2.22;;
25359;SDS011;13311;51.386;0.016;2023-08-21T00:53:37;5.72;;;2.58;;
25359;SDS011;13311;51.386;0.016;2023-08-21T00:58:38;6.63;;;2.45;;
25359;SDS011;13311;51.386;0.016;2023-08-21T01:03:39;7.63;;;2.50;;
25359;SDS011;13311;51.386;0.016;2023-08-21T01:14:09;5.85;;;2.55;;
25359;SDS011;13311;51.386;0.016;2023-08-21T01:19:40;5.70;;;2.78;;
25359;SDS011;13311;51.386;0.016;2023-08-21T01:24:43;4.15;;;3.13;;
25359;SDS011;13311;51.386;0.016;2023-08-21T01:29:44;4.25;;;2.40;;
25359;SDS011;13311;51.386;0.016;2023-08-21T01:34:45;5.45;;;2.72;;
25359;SDS011;13311;51.386;0.016;2023-08-21T01:39:47;7.55;;;3.40;;
25359;SDS011;13311;51.386;0.016;2023-08-21T01:44:48;7.90;;;2.30;;
25359;SDS011;13311;51.386;0.016;2023-08-21T01:49:48;5.93;;;2.92;;
25359;SDS011;13311;51.386;0.016;2023-08-21T01:54:52;9.00;;;3.30;;
25359;SDS011;13311;51.386;0.016;2023-08-21T01:59:52;4.13;;;2.75;;
25359;SDS011;13311;51.386;0.016;2023-08-21T02:04:53;6.85;;;2.63;;
25359;SDS011;13311;51.386;0.016;2023-08-21T02:09:54;5.38;;;2.83;;
25359;SDS011;13311;51.386;0.016;2023-08-21T02:14:54;8.35;;;3.58;;
25359;SDS011;13311;51.386;0.016;2023-08-21T02:19:55;7.57;;;4.28;;
25359;SDS011;13311;51.386;0.016;2023-08-21T02:24:56;8.15;;;4.13;;
25359;SDS011;13311;51.386;0.016;2023-08-21T02:29:56;11.73;;;4.57;;
25359;SDS011;13311;51.386;0.016;2023-08-21T02:34:57;10.10;;;4.22;;
25359;SDS011;13311;51.386;0.016;2023-08-21T02:39:58;13.65;;;5.95;;
25359;SDS011;13311;51.386;0.016;2023-08-21T02:44:59;10.98;;;5.45;;
25359;SDS011;13311;51.386;0.016;2023-08-21T02:50:06;9.85;;;4.60;;
25359;SDS011;13311;51.386;0.016;2023-08-21T02:55:08;7.05;;;4.97;;
25359;SDS011;13311;51.386;0.016;2023-08-21T03:00:10;7.43;;;4.88;;
25359;SDS011;13311;51.386;0.016;2023-08-21T03:05:11;8.27;;;5.00;;
25359;SDS011;13311;51.386;0.016;2023-08-21T03:10:13;8.13;;;5.30;;
25359;SDS011;13311;51.386;0.016;2023-08-21T03:15:14;9.55;;;5.45;;
25359;SDS011;13311;51.386;0.016;2023-08-21T03:20:15;8.00;;;4.75;;
25359;SDS011;13311;51.386;0.016;2023-08-21T03:25:17;11.38;;;5.82;;
25359;SDS011;13311;51.386;0.016;2023-08-21T03:30:18;11.48;;;5.70;;
25359;SDS011;13311;51.386;0.016;2023-08-21T03:35:18;12.93;;;5.60;;
25359;SDS011;13311;51.386;0.016;2023-08-21T03:40:19;9.80;;;5.32;;
25359;SDS011;13311;51.386;0.016;2023-08-21T03:45:20;10.63;;;6.20;;
25359;SDS011;13311;51.386;0.016;2023-08-21T03:50:20;10.35;;;5.65;;
25359;SDS011;13311;51.386;0.016;2023-08-21T03:55:21;7.78;;;4.20;;
25359;SDS011;13311;51.386;0.016;2023-08-21T04:00:22;10.88;;;4.22;;
25359;SDS011;13311;51.386;0.016;2023-08-21T04:05:22;8.13;;;4.22;;
25359;SDS011;13311;51.386;0.016;2023-08-21T04:10:23;13.13;;;4.97;;
25359;SDS011;13311;51.386;0.016;2023-08-21T04:15:25;8.40;;;4.43;;
25359;SDS011;13311;51.386;0.016;2023-08-21T04:20:26;9.18;;;5.00;;
25359;SDS011;13311;51.386;0.016;2023-08-21T04:25:27;15.15;;;5.38;;
25359;SDS011;13311;51.386;0.016;2023-08-21T04:30:28;10.63;;;5.35;;
25359;SDS011;13311;51.386;0.016;2023-08-21T04:35:28;9.45;;;4.28;;
25359;SDS011;13311;51.386;0.016;2023-08-21T04:40:29;9.43;;;5.30;;
25359;SDS011;13311;51.386;0.016;2023-08-21T04:45:30;7.72;;;4.72;;
25359;SDS011;13311;51.386;0.016;2023-08-21T04:50:30;9.75;;;4.50;;
25359;SDS011;13311;51.386;0.016;2023-08-21T04:55:31;9.30;;;4.50;;
25359;SDS011;13311;51.386;0.016;2023-08-21T05:00:32;7.88;;;4.28;;
25359;SDS011;13311;51.386;0.016;2023-08-21T05:05:33;14.95;;;5.97;;
25359;SDS011;13311;51.386;0.016;2023-08-21T05:10:35;12.05;;;4.35;;
25359;SDS011;13311;51.386;0.016;2023-08-21T05:15:36;12.65;;;4.65;;
25359;SDS011;13311;51.386;0.016;2023-08-21T05:20:37;11.90;;;5.22;;
25359;SDS011;13311;51.386;0.016;2023-08-21T05:25:38;9.32;;;4.50;;
25359;SDS011;13311;51.386;0.016;2023-08-21T05:30:39;8.85;;;4.63;;
25359;SDS011;13311;51.386;0.016;2023-08-21T05:35:40;9.18;;;4.30;;
25359;SDS011;13311;51.386;0.016;2023-08-21T05:40:41;17.00;;;5.53;;
25359;SDS011;13311;51.386;0.016;2023-08-21T05:45:42;5.80;;;3.92;;
25359;SDS011;13311;51.386;0.016;2023-08-21T05:50:43;9.13;;;5.10;;
25359;SDS011;13311;51.386;0.016;2023-08-21T05:55:43;6.43;;;4.30;;
25359;SDS011;13311;51.386;0.016;2023-08-21T06:00:44;8.75;;;4.40;;
25359;SDS011;13311;51.386;0.016;2023-08-21T06:05:47;8.52;;;4.97;;
25359;SDS011;13311;51.386;0.016;2023-08-21T06:10:51;9.30;;;5.07;;
25359;SDS011;13311;51.386;0.016;2023-08-21T06:15:54;7.00;;;4.43;;
25359;SDS011;13311;51.386;0.016;2023-08-21T06:20:55;9.00;;;4.85;;
25359;SDS011;13311;51.386;0.016;2023-08-21T06:25:56;9.35;;;5.13;;
25359;SDS011;13311;51.386;0.016;2023-08-21T06:30:56;8.10;;;4.72;;
25359;SDS011;13311;51.386;0.016;2023-08-21T06:36:03;5.63;;;3.97;;
25359;SDS011;13311;51.386;0.016;2023-08-21T06:41:04;8.07;;;4.38;;
25359;SDS011;13311;51.386;0.016;2023-08-21T06:46:05;6.60;;;4.03;;
25359;SDS011;13311;51.386;0.016;2023-08-21T06:51:05;5.47;;;3.63;;
25359;SDS011;13311;51.386;0.016;2023-08-21T06:56:06;11.88;;;3.83;;
25359;SDS011;13311;51.386;0.016;2023-08-21T07:01:07;6.47;;;3.90;;
25359;SDS011;13311;51.386;0.016;2023-08-21T07:06:08;6.22;;;3.35;;
25359;SDS011;13311;51.386;0.016;2023-08-21T07:11:09;7.70;;;3.60;;
25359;SDS011;13311;51.386;0.016;2023-08-21T07:16:10;8.15;;;3.67;;
25359;SDS011;13311;51.386;0.016;2023-08-21T07:21:10;6.80;;;3.83;;
25359;SDS011;13311;51.386;0.016;2023-08-21T07:26:11;7.95;;;3.28;;
25359;SDS011;13311;51.386;0.016;2023-08-21T07:31:12;5.85;;;2.65;;
25359;SDS011;13311;51.386;0.016;2023-08-21T07:36:12;10.52;;;3.05;;
25359;SDS011;13311;51.386;0.016;2023-08-21T07:41:17;4.00;;;2.45;;
25359;SDS011;13311;51.386;0.016;2023-08-21T07:46:17;4.88;;;2.20;;
25359;SDS011;13311;51.386;0.016;2023-08-21T07:51:18;6.32;;;2.13;;
25359;SDS011;13311;51.386;0.016;2023-08-21T07:56:19;3.45;;;1.60;;
25359;SDS011;13311;51.386;0.016;2023-08-21T08:01:20;4.72;;;1.98;;
25359;SDS011;13311;51.386;0.016;2023-08-21T08:06:20;4.78;;;1.60;;
25359;SDS011;13311;51.386;0.016;2023-08-21T08:11:21;5.40;;;2.58;;
25359;SDS011;13311;51.386;0.016;2023-08-21T08:16:22;10.27;;;3.42;;
25359;SDS011;13311;51.386;0.016;2023-08-21T08:21:23;4.63;;;2.33;;
25359;SDS011;13311;51.386;0.016;2023-08-21T08:26:23;4.82;;;2.45;;
25359;SDS011;13311;51.386;0.016;2023-08-21T08:31:24;5.03;;;2.13;;
25359;SDS011;13311;51.386;0.016;2023-08-21T08:36:27;4.60;;;2.00;;
25359;SDS011;13311;51.386;0.016;2023-08-21T08:41:37;7.55;;;2.50;;
25359;SDS011;13311;51.386;0.016;2023-08-21T08:46:52;3.28;;;1.80;;
25359;SDS011;13311;51.386;0.016;2023-08-21T08:51:53;5.43;;;1.80;;
25359;SDS011;13311;51.386;0.016;2023-08-21T08:56:54;2.83;;;1.10;;
25359;SDS011;13311;51.386;0.016;2023-08-21T09:01:55;4.10;;;1.77;;
25359;SDS011;13311;51.386;0.016;2023-08-21T09:12:12;3.15;;;1.08;;
25359;SDS011;13311;51.386;0.016;2023-08-21T09:17:15;3.17;;;1.20;;
25359;SDS011;13311;51.386;0.016;2023-08-21T09:22:16;3.13;;;1.77;;
25359;SDS011;13311;51.386;0.016;2023-08-21T09:27:18;6.18;;;2.35;;
25359;SDS011;13311;51.386;0.016;2023-08-21T09:32:19;2.60;;;1.33;;
25359;SDS011;13311;51.386;0.016;2023-08-21T09:37:19;1.58;;;1.17;;
25359;SDS011;13311;51.386;0.016;2023-08-21T09:42:20;2.30;;;1.08;;
25359;SDS011;13311;51.386;0.016;2023-08-21T09:47:24;3.55;;;1.33;;
25359;SDS011;13311;51.386;0.016;2023-08-21T09:52:26;6.05;;;0.88;;
25359;SDS011;13311;51.386;0.016;2023-08-21T09:57:27;1.52;;;1.00;;
25359;SDS011;13311;51.386;0.016;2023-08-21T10:02:28;3.00;;;1.65;;
25359;SDS011;13311;51.386;0.016;2023-08-21T10:07:30;6.10;;;1.52;;
25359;SDS011;13311;51.386;0.016;2023-08-21T10:12:34;3.95;;;1.35;;
25359;SDS011;13311;51.386;0.016;2023-08-21T10:17:35;3.90;;;1.27;;
25359;SDS011;13311;51.386;0.016;2023-08-21T10:22:38;3.15;;;1.67;;
25359;SDS011;13311;51.386;0.016;2023-08-21T10:27:43;2.60;;;1.33;;
25359;SDS011;13311;51.386;0.016;2023-08-21T10:32:50;2.03;;;1.15;;
25359;SDS011;13311;51.386;0.016;2023-08-21T10:38:05;3.70;;;1.70;;
25359;SDS011;13311;51.386;0.016;2023-08-21T10:48:39;4.05;;;1.25;;
25359;SDS011;13311;51.386;0.016;2023-08-21T10:53:40;1.90;;;1.10;;
25359;SDS011;13311;51.386;0.016;2023-08-21T10:58:43;2.92;;;1.30;;
25359;SDS011;13311;51.386;0.016;2023-08-21T11:03:50;3.80;;;1.60;;
25359;SDS011;13311;51.386;0.016;2023-08-21T11:08:51;3.17;;;1.50;;
25359;SDS011;13311;51.386;0.016;2023-08-21T11:13:52;3.42;;;1.30;;
25359;SDS011;13311;51.386;0.016;2023-08-21T11:18:54;1.55;;;1.20;;
25359;SDS011;13311;51.386;0.016;2023-08-21T11:23:54;1.83;;;1.02;;
25359;SDS011;13311;51.386;0.016;2023-08-21T11:28:55;5.90;;;1.30;;
25359;SDS011;13311;51.386;0.016;2023-08-21T11:33:56;2.97;;;1.00;;
25359;SDS011;13311;51.386;0.016;2023-08-21T11:38:57;2.83;;;1.30;;
25359;SDS011;13311;51.386;0.016;2023-08-21T11:44:07;1.92;;;1.02;;
25359;SDS011;13311;51.386;0.016;2023-08-21T11:49:09;3.33;;;1.17;;
25359;SDS011;13311;51.386;0.016;2023-08-21T11:54:09;3.28;;;1.50;;
25359;SDS011;13311;51.386;0.016;2023-08-21T11:59:10;2.90;;;1.00;;
25359;SDS011;13311;51.386;0.016;2023-08-21T12:04:15;3.38;;;1.10;;
25359;SDS011;13311;51.386;0.016;2023-08-21T12:09:15;3.42;;;1.60;;
25359;SDS011;13311;51.386;0.016;2023-08-21T12:14:19;2.92;;;1.48;;
25359;SDS011;13311;51.386;0.016;2023-08-21T12:19:20;2.42;;;1.65;;
25359;SDS011;13311;51.386;0.016;2023-08-21T12:24:24;2.22;;;1.73;;
25359;SDS011;13311;51.386;0.016;2023-08-21T12:29:25;4.43;;;2.97;;
25359;SDS011;13311;51.386;0.016;2023-08-21T12:34:25;3.60;;;2.33;;
25359;SDS011;13311;51.386;0.016;2023-08-21T12:39:26;4.68;;;2.60;;
25359;SDS011;13311;51.386;0.016;2023-08-21T12:44:27;5.00;;;3.00;;
25359;SDS011;13311;51.386;0.016;2023-08-21T12:49:27;5.82;;;3.28;;
25359;SDS011;13311;51.386;0.016;2023-08-21T12:54:28;5.90;;;2.97;;
25359;SDS011;13311;51.386;0.016;2023-08-21T12:59:29;5.38;;;3.92;;
25359;SDS011;13311;51.386;0.016;2023-08-21T13:04:30;4.43;;;3.60;;
25359;SDS011;13311;51.386;0.016;2023-08-21T13:09:30;3.40;;;2.80;;
25359;SDS011;13311;51.386;0.016;2023-08-21T13:14:32;4.22;;;2.50;;
25359;SDS011;13311;51.386;0.016;2023-08-21T13:19:33;3.50;;;2.53;;
25359;SDS011;13311;51.386;0.016;2023-08-21T13:24:34;3.92;;;2.40;;
25359;SDS011;13311;51.386;0.016;2023-08-21T13:29:34;4.60;;;2.97;;
25359;SDS011;13311;51.386;0.016;2023-08-21T13:34:35;2.75;;;1.90;;
25359;SDS011;13311;51.386;0.016;2023-08-21T13:39:35;2.80;;;1.92;;
25359;SDS011;13311;51.386;0.016;2023-08-21T13:44:36;5.10;;;2.28;;
25359;SDS011;13311;51.386;0.016;2023-08-21T13:49:37;2.00;;;1.80;;
25359;SDS011;13311;51.386;0.016;2023-08-21T13:54:37;2.13;;;1.30;;
25359;SDS011;13311;51.386;0.016;2023-08-21T13:59:38;2.33;;;1.20;;
25359;SDS011;13311;51.386;0.016;2023-08-21T14:04:39;2.28;;;1.20;;
25359;SDS011;13311;51.386;0.016;2023-08-21T14:09:39;1.85;;;1.50;;
25359;SDS011;13311;51.386;0.016;2023-08-21T14:14:40;3.50;;;1.85;;
25359;SDS011;13311;51.386;0.016;2023-08-21T14:19:41;2.95;;;1.25;;
25359;SDS011;13311;51.386;0.016;2023-08-21T14:24:41;4.28;;;1.88;;
25359;SDS011;13311;51.386;0.016;2023-08-21T14:29:43;3.80;;;1.10;;
25359;SDS011;13311;51.386;0.016;2023-08-21T14:34:44;2.58;;;1.15;;
25359;SDS011;13311;51.386;0.016;2023-08-21T14:39:45;2.67;;;1.25;;
25359;SDS011;13311;51.386;0.016;2023-08-21T14:44:46;3.70;;;1.60;;
25359;SDS011;13311;51.386;0.016;2023-08-21T14:49:47;2.33;;;1.10;;
25359;SDS011;13311;51.386;0.016;2023-08-21T14:54:48;2.03;;;1.05;;
25359;SDS011;13311;51.386;0.016;2023-08-21T14:59:50;4.40;;;1.35;;
25359;SDS011;13311;51.386;0.016;2023-08-21T15:04:51;2.60;;;1.45;;
25359;SDS011;13311;51.386;0.016;2023-08-21T15:09:52;3.67;;;1.30;;
25359;SDS011;13311;51.386;0.016;2023-08-21T15:14:52;3.20;;;1.10;;
25359;SDS011;13311;51.386;0.016;2023-08-21T15:19:53;2.92;;;1.42;;
25359;SDS011;13311;51.386;0.016;2023-08-21T15:24:54;3.00;;;1.35;;
25359;SDS011;13311;51.386;0.016;2023-08-21T15:29:54;3.08;;;1.17;;
25359;SDS011;13311;51.386;0.016;2023-08-21T15:34:55;2.53;;;1.15;;
25359;SDS011;13311;51.386;0.016;2023-08-21T15:39:56;3.53;;;1.30;;
25359;SDS011;13311;51.386;0.016;2023-08-21T15:44:56;4.88;;;1.27;;
25359;SDS011;13311;51.386;0.016;2023-08-21T15:49:57;4.78;;;1.30;;
25359;SDS011;13311;51.386;0.016;2023-08-21T15:54:58;1.67;;;1.10;;
25359;SDS011;13311;51.386;0.016;2023-08-21T15:59:58;2.33;;;1.30;;
25359;SDS011;13311;51.386;0.016;2023-08-21T16:04:59;4.28;;;1.08;;
25359;SDS011;13311;51.386;0.016;2023-08-21T16:10:00;2.47;;;1.40;;
25359;SDS011;13311;51.386;0.016;2023-08-21T16:15:04;1.77;;;0.90;;
25359;SDS011;13311;51.386;0.016;2023-08-21T16:20:05;3.10;;;1.05;;
25359;SDS011;13311;51.386;0.016;2023-08-21T16:25:07;3.70;;;1.15;;
25359;SDS011;13311;51.386;0.016;2023-08-21T16:30:08;3.85;;;1.10;;
25359;SDS011;13311;51.386;0.016;2023-08-21T16:35:09;3.53;;;1.33;;
25359;SDS011;13311;51.386;0.016;2023-08-21T16:40:10;4.35;;;1.10;;
25359;SDS011;13311;51.386;0.016;2023-08-21T16:45:11;3.50;;;1.20;;
25359;SDS011;13311;51.386;0.016;2023-08-21T16:50:14;3.60;;;1.48;;
25359;SDS011;13311;51.386;0.016;2023-08-21T16:55:15;4.53;;;3.03;;
25359;SDS011;13311;51.386;0.016;2023-08-21T17:00:15;4.10;;;2.00;;
25359;SDS011;13311;51.386;0.016;2023-08-21T17:05:16;3.63;;;1.33;;
25359;SDS011;13311;51.386;0.016;2023-08-21T17:10:17;1.73;;;1.35;;
25359;SDS011;13311;51.386;0.016;2023-08-21T17:15:18;2.47;;;1.23;;
25359;SDS011;13311;51.386;0.016;2023-08-21T17:20:19;9.13;;;4.10;;
25359;SDS011;13311;51.386;0.016;2023-08-21T17:25:20;2.50;;;1.63;;
25359;SDS011;13311;51.386;0.016;2023-08-21T17:30:21;2.05;;;1.25;;
25359;SDS011;13311;51.386;0.016;2023-08-21T17:35:22;3.38;;;1.98;;
25359;SDS011;13311;51.386;0.016;2023-08-21T17:40:23;2.70;;;1.55;;
25359;SDS011;13311;51.386;0.016;2023-08-21T17:45:24;3.38;;;1.55;;
25359;SDS011;13311;51.386;0.016;2023-08-21T17:50:25;5.78;;;1.60;;
25359;SDS011;13311;51.386;0.016;2023-08-21T17:55:26;2.45;;;1.25;;
25359;SDS011;13311;51.386;0.016;2023-08-21T18:00:26;4.05;;;1.30;;
25359;SDS011;13311;51.386;0.016;2023-08-21T18:05:28;2.38;;;0.93;;
25359;SDS011;13311;51.386;0.016;2023-08-21T18:10:31;2.75;;;1.35;;
25359;SDS011;13311;51.386;0.016;2023-08-21T18:15:33;3.58;;;1.13;;
25359;SDS011;13311;51.386;0.016;2023-08-21T18:20:50;4.45;;;1.52;;
25359;SDS011;13311;51.386;0.016;2023-08-21T18:25:55;2.45;;;1.55;;
25359;SDS011;13311;51.386;0.016;2023-08-21T18:30:58;2.67;;;1.10;;
25359;SDS011;13311;51.386;0.016;2023-08-21T18:35:59;2.17;;;1.40;;
25359;SDS011;13311;51.386;0.016;2023-08-21T18:41:00;4.40;;;1.25;;
25359;SDS011;13311;51.386;0.016;2023-08-21T18:46:01;2.50;;;1.42;;
25359;SDS011;13311;51.386;0.016;2023-08-21T18:51:02;2.28;;;1.45;;
25359;SDS011;13311;51.386;0.016;2023-08-21T18:56:03;4.75;;;1.33;;
25359;SDS011;13311;51.386;0.016;2023-08-21T19:01:05;5.65;;;1.17;;
25359;SDS011;13311;51.386;0.016;2023-08-21T19:06:06;2.65;;;1.58;;
25359;SDS011;13311;51.386;0.016;2023-08-21T19:11:06;2.00;;;1.20;;
25359;SDS011;13311;51.386;0.016;2023-08-21T19:16:08;5.80;;;1.85;;
25359;SDS011;13311;51.386;0.016;2023-08-21T19:21:08;4.43;;;1.55;;
25359;SDS011;13311;51.386;0.016;2023-08-21T19:26:09;6.88;;;1.67;;
25359;SDS011;13311;51.386;0.016;2023-08-21T19:31:10;3.97;;;1.40;;
25359;SDS011;13311;51.386;0.016;2023-08-21T19:36:14;2.88;;;1.70;;
25359;SDS011;13311;51.386;0.016;2023-08-21T19:41:15;3.63;;;1.88;;
25359;SDS011;13311;51.386;0.016;2023-08-21T19:46:16;2.70;;;1.73;;
25359;SDS011;13311;51.386;0.016;2023-08-21T19:51:16;5.80;;;1.50;;
25359;SDS011;13311;51.386;0.016;2023-08-21T19:56:17;2.58;;;1.63;;
25359;SDS011;13311;51.386;0.016;2023-08-21T20:01:18;3.88;;;1.92;;
25359;SDS011;13311;51.386;0.016;2023-08-21T20:06:18;3.60;;;2.30;;
25359;SDS011;13311;51.386;0.016;2023-08-21T20:11:19;5.15;;;2.08;;
25359;SDS011;13311;51.386;0.016;2023-08-21T20:16:20;3.97;;;1.83;;
25359;SDS011;13311;51.386;0.016;2023-08-21T20:21:21;4.13;;;2.25;;
25359;SDS011;13311;51.386;0.016;2023-08-21T20:26:21;9.05;;;3.45;;
25359;SDS011;13311;51.386;0.016;2023-08-21T20:31:24;6.88;;;3.50;;
25359;SDS011;13311;51.386;0.016;2023-08-21T20:36:26;6.28;;;3.42;;
25359;SDS011;13311;51.386;0.016;2023-08-21T20:41:26;7.30;;;3.10;;
25359;SDS011;13311;51.386;0.016;2023-08-21T20:46:27;4.07;;;2.40;;
25359;SDS011;13311;51.386;0.016;2023-08-21T20:51:28;6.20;;;2.70;;
25359;SDS011;13311;51.386;0.016;2023-08-21T20:56:29;4.75;;;2.60;;
25359;SDS011;13311;51.386;0.016;2023-08-21T21:01:29;6.85;;;2.90;;
25359;SDS011;13311;51.386;0.016;2023-08-21T21:06:30;7.03;;;3.05;;
25359;SDS011;13311;51.386;0.016;2023-08-21T21:11:31;5.57;;;2.35;;
25359;SDS011;13311;51.386;0.016;2023-08-21T21:16:31;3.95;;;2.40;;
25359;SDS011;13311;51.386;0.016;2023-08-21T21:21:32;5.25;;;2.33;;
25359;SDS011;13311;51.386;0.016;2023-08-21T21:26:33;5.78;;;2.88;;
25359;SDS011;13311;51.386;0.016;2023-08-21T21:31:34;6.88;;;2.63;;
25359;SDS011;13311;51.386;0.016;2023-08-21T21:36:35;6.03;;;2.25;;
25359;SDS011;13311;51.386;0.016;2023-08-21T21:41:40;7.85;;;2.67;;
25359;SDS011;13311;51.386;0.016;2023-08-21T21:46:41;8.18;;;2.53;;
25359;SDS011;13311;51.386;0.016;2023-08-21T21:51:41;4.95;;;2.45;;
25359;SDS011;13311;51.386;0.016;2023-08-21T21:56:42;4.93;;;2.35;;
25359;SDS011;13311;51.386;0.016;2023-08-21T22:01:43;7.95;;;2.95;;
25359;SDS011;13311;51.386;0.016;2023-08-21T22:06:43;12.48;;;3.10;;
25359;SDS011;13311;51.386;0.016;2023-08-21T22:11:45;4.78;;;2.22;;
25359;SDS011;13311;51.386;0.016;2023-08-21T22:16:46;6.00;;;2.20;;
25359;SDS011;13311;51.386;0.016;2023-08-21T22:21:47;5.47;;;2.17;;
25359;SDS011;13311;51.386;0.016;2023-08-21T22:26:47;4.68;;;2.35;;
25359;SDS011;13311;51.386;0.016;2023-08-21T22:31:48;7.47;;;2.45;;
25359;SDS011;13311;51.386;0.016;2023-08-21T22:36:49;6.72;;;2.83;;
25359;SDS011;13311;51.386;0.016;2023-08-21T22:41:50;5.55;;;2.05;;
25359;SDS011;13311;51.386;0.016;2023-08-21T22:46:50;8.25;;;2.45;;
25359;SDS011;13311;51.386;0.016;2023-08-21T22:51:51;6.68;;;2.25;;
25359;SDS011;13311;51.386;0.016;2023-08-21T22:56:52;3.45;;;1.63;;
25359;SDS011;13311;51.386;0.016;2023-08-21T23:01:53;6.10;;;2.12;;
25359;SDS011;13311;51.386;0.016;2023-08-21T23:06:53;5.65;;;2.22;;
25359;SDS011;13311;51.386;0.016;2023-08-21T23:11:54;7.80;;;2.03;;
25359;SDS011;13311;51.386;0.016;2023-08-21T23:16:55;9.55;;;2.65;;
25359;SDS011;13311;51.386;0.016;2023-08-21T23:21:56;4.95;;;2.10;;
25359;SDS011;13311;51.386;0.016;2023-08-21T23:26:56;4.35;;;2.22;;
25359;SDS011;13311;51.386;0.016;2023-08-21T23:38:13;6.57;;;1.80;;
25359;SDS011;13311;51.386;0.016;2023-08-21T23:43:13;8.82;;;2.63;;
25359;SDS011;13311;51.386;0.016;2023-08-21T23:48:14;5.50;;;2.05;;
25359;SDS011;13311;51.386;0.016;2023-08-21T23:53:15;7.30;;;2.35;;
25359;SDS011;13311;51.386;0.016;2023-08-21T23:58:15;7.30;;;2.47;;
